createdAt,value
2018-01-28T00:00:38.639Z,31.50
2018-01-28T00:03:06.033Z,29.10
2018-01-28T00:05:33.504Z,32.23
2018-01-28T00:08:00.833Z,31.70
2018-01-28T00:10:28.205Z,35.50
2018-01-28T00:12:55.536Z,31.97
2018-01-28T00:15:23.001Z,31.57
2018-01-28T00:17:50.407Z,30.20
2018-01-28T00:20:17.823Z,32.73
2018-01-28T00:22:45.270Z,30.27
2018-01-28T00:25:12.638Z,32.57
2018-01-28T00:27:40.055Z,34.93
2018-01-28T00:30:07.422Z,30.80
2018-01-28T00:32:34.777Z,29.77
2018-01-28T00:35:02.222Z,30.07
2018-01-28T00:37:29.680Z,35.53
2018-01-28T00:39:57.078Z,32.07
2018-01-28T00:42:24.491Z,29.67
2018-01-28T00:44:51.863Z,29.70
2018-01-28T00:47:19.188Z,33.90
2018-01-28T00:49:46.542Z,36.50
2018-01-28T00:52:13.907Z,32.77
2018-01-28T00:54:41.266Z,30.17
2018-01-28T00:57:08.729Z,35.70
2018-01-28T00:59:36.072Z,32.10
2018-01-28T01:02:03.433Z,28.00
2018-01-28T01:04:30.780Z,30.73
2018-01-28T01:06:58.165Z,29.90
2018-01-28T01:09:25.502Z,29.73
2018-01-28T01:11:52.829Z,31.67
2018-01-28T01:14:20.194Z,31.47
2018-01-28T01:16:47.536Z,28.90
2018-01-28T01:19:14.894Z,26.20
2018-01-28T01:21:42.273Z,27.00
2018-01-28T01:24:09.729Z,28.93
2018-01-28T01:26:37.083Z,26.17
2018-01-28T01:29:04.453Z,29.40
2018-01-28T01:31:31.798Z,29.90
2018-01-28T01:33:59.161Z,27.70
2018-01-28T01:36:26.553Z,28.17
2018-01-28T01:38:53.895Z,30.33
2018-01-28T01:41:21.321Z,27.70
2018-01-28T01:43:48.654Z,26.13
2018-01-28T01:46:16.126Z,26.87
2018-01-28T01:48:43.482Z,28.00
2018-01-28T01:51:10.823Z,27.40
2018-01-28T01:53:38.294Z,26.27
2018-01-28T01:56:05.642Z,26.90
2018-01-28T01:58:33.015Z,26.10
2018-01-28T02:01:00.378Z,25.47
2018-01-28T02:03:27.762Z,27.00
2018-01-28T02:05:55.102Z,21.97
2018-01-28T02:08:22.440Z,22.43
2018-01-28T02:10:49.796Z,22.33
2018-01-28T02:13:17.132Z,23.53
2018-01-28T02:15:44.502Z,21.90
2018-01-28T02:18:11.868Z,23.13
2018-01-28T02:20:39.228Z,24.40
2018-01-28T02:23:06.601Z,22.90
2018-01-28T02:25:33.962Z,23.60
2018-01-28T02:28:01.327Z,23.70
2018-01-28T02:30:28.723Z,22.47
2018-01-28T02:32:56.182Z,25.90
2018-01-28T02:35:23.525Z,25.73
2018-01-28T02:37:50.885Z,25.27
2018-01-28T02:40:18.242Z,25.47
2018-01-28T02:42:45.632Z,25.00
2018-01-28T02:45:12.968Z,22.27
2018-01-28T02:47:40.302Z,20.47
2018-01-28T02:50:07.667Z,17.40
2018-01-28T02:52:35.016Z,21.30
2018-01-28T02:55:02.374Z,20.87
2018-01-28T02:57:29.833Z,22.23
2018-01-28T02:59:57.287Z,20.80
2018-01-28T03:02:24.646Z,20.53
2018-01-28T03:04:52.018Z,21.60
2018-01-28T03:07:19.371Z,20.33
2018-01-28T03:09:46.701Z,20.33
2018-01-28T03:12:14.090Z,20.43
2018-01-28T03:14:41.433Z,23.97
2018-01-28T03:17:08.817Z,22.20
2018-01-28T03:19:36.236Z,22.33
2018-01-28T03:22:03.608Z,20.30
2018-01-28T03:24:31.039Z,20.00
2018-01-28T03:26:58.398Z,22.03
2018-01-28T03:29:25.853Z,21.67
2018-01-28T03:31:53.185Z,18.47
2018-01-28T03:34:20.565Z,19.00
2018-01-28T03:36:47.902Z,20.10
2018-01-28T03:39:15.274Z,20.73
2018-01-28T03:41:42.628Z,23.10
2018-01-28T03:44:09.973Z,20.30
2018-01-28T03:46:37.420Z,21.93
2018-01-28T03:49:04.793Z,20.83
2018-01-28T03:51:32.249Z,21.20
2018-01-28T03:53:59.594Z,19.20
2018-01-28T03:56:26.966Z,20.73
2018-01-28T03:58:54.416Z,21.60
2018-01-28T04:01:21.753Z,19.40
2018-01-28T04:03:49.125Z,20.00
2018-01-28T04:06:16.466Z,19.70
2018-01-28T04:08:43.938Z,19.83
2018-01-28T04:11:11.291Z,18.57
2018-01-28T04:13:38.650Z,15.97
2018-01-28T04:16:05.998Z,20.00
2018-01-28T04:18:33.383Z,19.03
2018-01-28T04:21:00.725Z,18.53
2018-01-28T04:23:28.055Z,18.93
2018-01-28T04:25:55.530Z,17.73
2018-01-28T04:28:22.855Z,19.87
2018-01-28T04:30:50.224Z,23.93
2018-01-28T04:33:17.557Z,19.30
2018-01-28T04:35:44.918Z,18.23
2018-01-28T04:38:12.253Z,16.60
2018-01-28T04:40:39.630Z,15.27
2018-01-28T04:43:06.966Z,17.90
2018-01-28T04:45:34.366Z,17.97
2018-01-28T04:48:01.756Z,16.47
2018-01-28T04:50:29.081Z,15.67
2018-01-28T04:52:56.448Z,14.97
2018-01-28T04:55:23.888Z,16.77
2018-01-28T04:57:51.345Z,15.57
2018-01-28T05:00:18.678Z,14.93
2018-01-28T05:02:46.162Z,16.10
2018-01-28T05:05:13.504Z,14.57
2018-01-28T05:07:40.837Z,16.20
2018-01-28T05:10:08.324Z,22.10
2018-01-28T05:12:35.686Z,15.03
2018-01-28T05:15:03.055Z,13.00
2018-01-28T05:17:30.385Z,15.93
2018-01-28T05:19:57.756Z,17.33
2018-01-28T05:22:25.084Z,14.03
2018-01-28T05:24:52.426Z,14.30
2018-01-28T05:27:19.794Z,15.00
2018-01-28T05:29:47.145Z,16.90
2018-01-28T05:32:14.521Z,14.83
2018-01-28T05:34:41.858Z,12.87
2018-01-28T05:37:09.229Z,15.13
2018-01-28T05:39:36.746Z,16.80
2018-01-28T05:42:04.073Z,12.47
2018-01-28T05:44:31.428Z,12.43
2018-01-28T05:46:58.849Z,12.70
2018-01-28T05:49:26.214Z,16.57
2018-01-28T05:51:53.554Z,13.77
2018-01-28T05:54:20.918Z,20.73
2018-01-28T05:56:48.310Z,13.47
2018-01-28T05:59:15.638Z,11.90
2018-01-28T06:01:43.002Z,13.07
2018-01-28T06:04:10.455Z,15.33
2018-01-28T06:06:37.838Z,13.50
2018-01-28T06:09:05.199Z,16.67
2018-01-28T06:11:32.565Z,20.97
2018-01-28T06:13:59.907Z,17.33
2018-01-28T06:16:27.265Z,16.07
2018-01-28T06:18:54.599Z,20.00
2018-01-28T06:21:21.946Z,15.40
2018-01-28T06:23:49.304Z,12.30
2018-01-28T06:26:16.640Z,12.90
2018-01-28T06:28:43.998Z,17.53
2018-01-28T06:31:11.330Z,12.50
2018-01-28T06:33:38.689Z,13.47
2018-01-28T06:36:06.052Z,12.63
2018-01-28T06:38:33.382Z,12.90
2018-01-28T06:41:00.738Z,12.27
2018-01-28T06:43:28.112Z,11.30
2018-01-28T06:45:55.478Z,11.33
2018-01-28T06:48:22.803Z,12.90
2018-01-28T06:50:50.177Z,15.33
2018-01-28T06:53:17.506Z,11.97
2018-01-28T06:55:44.841Z,12.37
2018-01-28T06:58:12.213Z,11.70
2018-01-28T07:00:39.546Z,11.87
2018-01-28T07:03:06.905Z,11.03
2018-01-28T07:05:34.241Z,12.37
2018-01-28T07:08:01.595Z,10.70
2018-01-28T07:10:28.932Z,10.57
2018-01-28T07:12:56.272Z,11.40
2018-01-28T07:15:23.640Z,10.73
2018-01-28T07:17:50.986Z,13.33
2018-01-28T07:20:22.297Z,10.87
2018-01-28T07:22:49.622Z,9.60
2018-01-28T07:25:17.008Z,7.63
2018-01-28T07:27:44.324Z,11.37
2018-01-28T07:30:11.664Z,12.93
2018-01-28T07:32:39.017Z,9.20
2018-01-28T07:35:06.362Z,10.63
2018-01-28T07:37:33.720Z,9.00
2018-01-28T07:40:01.057Z,22.73
2018-01-28T07:42:28.436Z,13.13
2018-01-28T07:44:55.779Z,49.30
2018-01-28T07:47:23.105Z,13.03
2018-01-28T07:49:50.584Z,16.50
2018-01-28T07:52:17.922Z,15.20
2018-01-28T07:54:45.286Z,29.80
2018-01-28T07:57:12.626Z,17.03
2018-01-28T07:59:40.003Z,11.90
2018-01-28T08:02:07.328Z,13.30
2018-01-28T08:04:34.665Z,15.67
2018-01-28T08:07:02.041Z,22.70
2018-01-28T08:09:29.373Z,20.17
2018-01-28T08:12:11.618Z,17.17
2018-01-28T08:14:38.945Z,9.10
2018-01-28T08:17:06.298Z,8.10
2018-01-28T08:19:33.713Z,8.40
2018-01-28T08:22:01.096Z,9.10
2018-01-28T08:24:28.450Z,8.57
2018-01-28T08:27:10.689Z,6.40
2018-01-28T08:29:38.018Z,12.20
2018-01-28T08:32:05.412Z,12.00
2018-01-28T08:34:32.856Z,7.30
2018-01-28T08:37:00.186Z,5.40
2018-01-28T08:39:27.536Z,5.13
2018-01-28T08:41:56.692Z,5.67
2018-01-28T08:44:24.262Z,4.23
2018-01-28T08:46:51.694Z,8.80
2018-01-28T08:49:19.019Z,6.03
2018-01-28T08:51:46.366Z,6.80
2018-01-28T08:54:13.980Z,7.30
2018-01-28T08:56:41.602Z,4.40
2018-01-28T08:59:08.928Z,8.10
2018-01-28T09:01:36.282Z,5.27
2018-01-28T09:04:03.614Z,6.43
2018-01-28T09:06:30.929Z,5.20
2018-01-28T09:08:58.301Z,5.00
2018-01-28T09:11:25.617Z,4.40
2018-01-28T09:13:52.977Z,4.30
2018-01-28T09:16:20.297Z,7.30
2018-01-28T09:18:47.679Z,7.40
2018-01-28T09:21:14.997Z,7.00
2018-01-28T09:23:42.341Z,6.00
2018-01-28T09:26:09.670Z,9.77
2018-01-28T09:28:37.016Z,5.50
2018-01-28T09:31:04.372Z,6.17
2018-01-28T09:33:31.696Z,4.60
2018-01-28T09:35:59.045Z,6.40
2018-01-28T09:38:26.373Z,5.77
2018-01-28T09:40:53.739Z,3.70
2018-01-28T09:43:21.070Z,6.07
2018-01-28T09:45:48.436Z,3.23
2018-01-28T09:48:15.772Z,5.03
2018-01-28T09:50:43.104Z,4.03
2018-01-28T09:53:10.454Z,4.20
2018-01-28T09:55:37.789Z,3.67
2018-01-28T09:58:05.145Z,4.13
2018-01-28T10:00:32.508Z,4.50
2018-01-28T10:02:59.897Z,3.63
2018-01-28T10:05:27.221Z,4.77
2018-01-28T10:07:54.546Z,5.17
2018-01-28T10:10:21.893Z,5.73
2018-01-28T10:12:49.317Z,6.80
2018-01-28T10:15:16.681Z,3.80
2018-01-28T10:17:44.014Z,3.97
2018-01-28T10:20:11.464Z,5.30
2018-01-28T10:22:39.029Z,5.70
2018-01-28T10:25:06.628Z,7.03
2018-01-28T10:27:34.058Z,10.40
2018-01-28T10:30:01.395Z,5.80
2018-01-28T10:32:28.772Z,5.30
2018-01-28T10:34:56.125Z,4.40
2018-01-28T10:37:23.477Z,5.13
2018-01-28T10:39:50.801Z,5.23
2018-01-28T10:42:18.155Z,4.07
2018-01-28T10:44:45.477Z,4.23
2018-01-28T10:47:12.834Z,4.57
2018-01-28T10:49:40.156Z,6.23
2018-01-28T10:52:07.478Z,6.03
2018-01-28T10:54:34.835Z,7.90
2018-01-28T10:57:02.155Z,5.13
2018-01-28T10:59:29.501Z,8.03
2018-01-28T11:01:56.821Z,4.20
2018-01-28T11:04:24.186Z,3.93
2018-01-28T11:06:51.505Z,7.10
2018-01-28T11:09:18.824Z,3.90
2018-01-28T11:11:46.172Z,4.30
2018-01-28T11:14:13.500Z,4.20
2018-01-28T11:16:40.855Z,5.43
2018-01-28T11:19:08.177Z,4.67
2018-01-28T11:21:35.537Z,5.50
2018-01-28T11:24:02.853Z,4.40
2018-01-28T11:26:30.178Z,6.23
2018-01-28T11:28:57.563Z,4.03
2018-01-28T11:31:24.885Z,5.10
2018-01-28T11:33:52.269Z,5.80
2018-01-28T11:36:19.633Z,3.80
2018-01-28T11:38:46.974Z,5.00
2018-01-28T11:41:14.337Z,4.53
2018-01-28T11:43:41.694Z,3.70
2018-01-28T11:46:09.013Z,3.60
2018-01-28T11:48:36.335Z,3.50
2018-01-28T11:51:03.688Z,6.67
2018-01-28T11:53:31.008Z,5.30
2018-01-28T11:55:58.352Z,8.87
2018-01-28T11:58:25.726Z,3.90
2018-01-28T12:00:53.063Z,8.30
2018-01-28T12:03:20.390Z,7.10
2018-01-28T12:05:47.742Z,8.07
2018-01-28T12:08:15.112Z,6.00
2018-01-28T12:10:42.431Z,4.27
2018-01-28T12:13:09.794Z,5.00
2018-01-28T12:15:37.117Z,4.77
2018-01-28T12:18:04.468Z,5.10
2018-01-28T12:20:31.836Z,5.50
2018-01-28T12:22:59.182Z,5.40
2018-01-28T12:25:26.543Z,5.10
2018-01-28T12:27:53.869Z,7.00
2018-01-28T12:30:21.215Z,6.60
2018-01-28T12:32:48.540Z,4.93
2018-01-28T12:35:15.914Z,7.53
2018-01-28T12:37:43.281Z,3.60
2018-01-28T12:40:10.647Z,3.20
2018-01-28T12:42:38.007Z,3.70
2018-01-28T12:45:05.332Z,7.33
2018-01-28T12:47:32.714Z,5.20
2018-01-28T12:50:00.079Z,5.03
2018-01-28T12:52:27.471Z,5.67
2018-01-28T12:54:54.805Z,6.27
2018-01-28T12:57:22.214Z,5.30
2018-01-28T12:59:49.538Z,3.47
2018-01-28T13:02:16.858Z,6.10
2018-01-28T13:04:44.209Z,6.13
2018-01-28T13:07:11.530Z,3.50
2018-01-28T13:09:38.886Z,6.13
2018-01-28T13:12:06.217Z,3.50
2018-01-28T13:14:33.595Z,8.10
2018-01-28T13:17:00.952Z,4.10
2018-01-28T13:19:28.275Z,3.90
2018-01-28T13:21:55.678Z,5.60
2018-01-28T13:24:23.005Z,4.90
2018-01-28T13:26:50.357Z,3.63
2018-01-28T13:29:17.678Z,4.10
2018-01-28T13:31:45.031Z,8.40
2018-01-28T13:34:12.353Z,6.63
2018-01-28T13:36:39.714Z,3.33
2018-01-28T13:39:07.084Z,4.40
2018-01-28T13:41:34.589Z,3.87
2018-01-28T13:44:02.046Z,7.07
2018-01-28T13:46:29.371Z,3.53
2018-01-28T13:48:56.778Z,11.33
2018-01-28T13:51:24.102Z,5.10
2018-01-28T13:53:51.458Z,4.30
2018-01-28T13:56:18.781Z,3.50
2018-01-28T13:58:46.278Z,3.13
2018-01-28T14:01:13.605Z,4.70
2018-01-28T14:03:40.976Z,6.60
2018-01-28T14:06:08.345Z,4.83
2018-01-28T14:08:35.671Z,10.03
2018-01-28T14:11:03.070Z,6.63
2018-01-28T14:13:30.405Z,4.50
2018-01-28T14:15:57.777Z,4.90
2018-01-28T14:18:25.305Z,8.33
2018-01-28T14:20:52.760Z,10.10
2018-01-28T14:23:20.236Z,4.43
2018-01-28T14:25:47.694Z,14.33
2018-01-28T14:28:15.095Z,20.07
2018-01-28T14:30:42.470Z,6.50
2018-01-28T14:33:09.868Z,4.17
2018-01-28T14:35:37.238Z,5.93
2018-01-28T14:38:04.569Z,8.00
2018-01-28T14:40:31.928Z,6.63
2018-01-28T14:42:59.297Z,4.40
2018-01-28T14:45:26.713Z,6.47
2018-01-28T14:47:54.028Z,6.97
2018-01-28T14:50:21.386Z,4.63
2018-01-28T14:52:48.765Z,5.00
2018-01-28T14:55:16.259Z,4.50
2018-01-28T14:57:43.716Z,4.40
2018-01-28T15:00:11.049Z,5.63
2018-01-28T15:02:38.401Z,6.50
2018-01-28T15:05:05.797Z,5.40
2018-01-28T15:07:33.185Z,4.47
2018-01-28T15:10:00.514Z,8.80
2018-01-28T15:12:27.900Z,3.77
2018-01-28T15:14:55.280Z,5.33
2018-01-28T15:17:22.672Z,8.00
2018-01-28T15:19:50.043Z,5.03
2018-01-28T15:22:17.407Z,7.30
2018-01-28T15:24:44.750Z,5.60
2018-01-28T15:27:12.125Z,4.50
2018-01-28T15:29:39.473Z,4.93
2018-01-28T15:32:06.797Z,7.97
2018-01-28T15:34:34.197Z,8.53
2018-01-28T15:37:01.516Z,4.90
2018-01-28T15:39:28.915Z,7.93
2018-01-28T15:41:56.239Z,4.33
2018-01-28T15:44:23.561Z,7.17
2018-01-28T15:46:50.957Z,4.67
2018-01-28T15:49:18.274Z,8.40
2018-01-28T15:51:45.672Z,4.43
2018-01-28T15:54:13.000Z,6.90
2018-01-28T15:56:40.399Z,10.43
2018-01-28T15:59:07.731Z,5.80
2018-01-28T16:01:35.141Z,8.07
2018-01-28T16:04:02.461Z,5.00
2018-01-28T16:06:29.789Z,6.13
2018-01-28T16:08:57.214Z,5.80
2018-01-28T16:11:24.542Z,11.30
2018-01-28T16:13:51.952Z,7.73
2018-01-28T16:16:19.410Z,5.93
2018-01-28T16:18:46.948Z,5.90
2018-01-28T16:21:14.313Z,6.10
2018-01-28T16:23:41.757Z,5.67
2018-01-28T16:26:09.213Z,7.10
2018-01-28T16:28:36.581Z,7.07
2018-01-28T16:31:03.933Z,14.50
2018-01-28T16:33:31.308Z,6.37
2018-01-28T16:35:58.660Z,6.43
2018-01-28T16:38:25.986Z,6.50
2018-01-28T16:40:53.468Z,8.50
2018-01-28T16:43:20.818Z,6.57
2018-01-28T16:45:48.192Z,6.43
2018-01-28T16:48:15.550Z,9.70
2018-01-28T16:50:42.879Z,6.53
2018-01-28T16:53:10.264Z,6.57
2018-01-28T16:55:37.645Z,11.20
2018-01-28T16:58:05.048Z,7.20
2018-01-28T17:00:32.487Z,6.77
2018-01-28T17:02:59.948Z,7.07
2018-01-28T17:05:27.302Z,6.70
2018-01-28T17:07:54.666Z,8.50
2018-01-28T17:10:22.062Z,9.30
2018-01-28T17:12:49.421Z,8.80
2018-01-28T17:15:16.818Z,9.17
2018-01-28T17:17:44.142Z,10.03
2018-01-28T17:20:11.555Z,8.43
2018-01-28T17:22:38.887Z,13.23
2018-01-28T17:25:06.354Z,9.03
2018-01-28T17:27:33.747Z,10.07
2018-01-28T17:30:01.074Z,8.70
2018-01-28T17:32:28.490Z,12.73
2018-01-28T17:34:55.891Z,17.77
2018-01-28T17:37:23.289Z,11.90
2018-01-28T17:39:50.612Z,10.37
2018-01-28T17:42:18.030Z,12.13
2018-01-28T17:44:45.355Z,11.27
2018-01-28T17:47:12.681Z,12.85
2018-01-28T17:49:41.021Z,10.20
2018-01-28T17:52:08.347Z,10.27
2018-01-28T17:54:35.848Z,11.37
2018-01-28T17:57:03.220Z,11.97
2018-01-28T17:59:30.592Z,13.00
2018-01-28T18:01:58.223Z,11.90
2018-01-28T18:04:25.779Z,10.77
2018-01-28T18:06:53.258Z,8.87
2018-01-28T18:09:20.750Z,11.97
2018-01-28T18:11:48.183Z,10.43
2018-01-28T18:14:15.670Z,8.10
2018-01-28T18:16:43.054Z,10.40
2018-01-28T18:19:10.429Z,13.40
2018-01-28T18:21:37.838Z,10.10
2018-01-28T18:24:05.174Z,13.53
2018-01-28T18:26:32.510Z,11.23
2018-01-28T18:28:59.869Z,9.80
2018-01-28T18:31:27.261Z,9.07
2018-01-28T18:33:54.602Z,9.47
2018-01-28T18:36:21.933Z,11.07
2018-01-28T18:38:49.337Z,14.33
2018-01-28T18:41:16.659Z,9.43
2018-01-28T18:43:44.074Z,9.77
2018-01-28T18:46:11.446Z,10.93
2018-01-28T18:48:38.834Z,10.03
2018-01-28T18:51:06.241Z,8.60
2018-01-28T18:53:33.613Z,9.67
2018-01-28T18:56:01.008Z,11.97
2018-01-28T18:58:28.377Z,9.70
2018-01-28T19:00:55.786Z,10.63
2018-01-28T19:03:23.164Z,10.30
2018-01-28T19:05:50.574Z,8.80
2018-01-28T19:08:17.928Z,10.53
2018-01-28T19:10:45.271Z,8.60
2018-01-28T19:13:12.675Z,7.90
2018-01-28T19:15:40.128Z,9.27
2018-01-28T19:18:07.537Z,10.50
2018-01-28T19:20:34.868Z,20.80
2018-01-28T19:23:02.188Z,4.33
2018-01-28T19:25:29.581Z,7.67
2018-01-28T19:27:56.950Z,12.10
2018-01-28T19:30:24.295Z,5.27
2018-01-28T19:32:51.660Z,9.17
2018-01-28T19:35:19.061Z,6.20
2018-01-28T19:37:46.439Z,7.50
2018-01-28T19:40:13.841Z,6.10
2018-01-28T19:42:41.188Z,4.10
2018-01-28T19:45:08.579Z,5.03
2018-01-28T19:47:36.010Z,5.70
2018-01-28T19:50:03.397Z,7.77
2018-01-28T19:52:30.809Z,4.53
2018-01-28T19:54:58.178Z,5.30
2018-01-28T19:57:25.577Z,4.67
2018-01-28T19:59:52.941Z,9.60
2018-01-28T20:02:20.309Z,5.17
2018-01-28T20:04:47.845Z,5.87
2018-01-28T20:07:15.178Z,4.90
2018-01-28T20:09:42.581Z,20.33
2018-01-28T20:12:09.956Z,5.13
2018-01-28T20:14:37.464Z,5.40
2018-01-28T20:17:04.784Z,6.77
2018-01-28T20:19:32.152Z,7.60
2018-01-28T20:21:59.570Z,4.30
2018-01-28T20:24:26.941Z,3.30
2018-01-28T20:26:54.414Z,4.30
2018-01-28T20:29:21.778Z,7.77
2018-01-28T20:31:49.187Z,4.07
2018-01-28T20:34:16.558Z,7.13
2018-01-28T20:36:43.886Z,4.47
2018-01-28T20:39:11.297Z,3.60
2018-01-28T20:41:38.665Z,4.50
2018-01-28T20:44:06.066Z,4.40
2018-01-28T20:46:33.446Z,4.10
2018-01-28T20:49:00.839Z,3.50
2018-01-28T20:51:28.217Z,16.50
2018-01-28T20:53:55.631Z,4.80
2018-01-28T20:56:22.981Z,5.60
2018-01-28T20:58:50.557Z,3.50
2018-01-28T21:01:17.987Z,4.30
2018-01-28T21:03:45.449Z,3.17
2018-01-28T21:06:12.832Z,4.57
2018-01-28T21:08:40.196Z,3.40
2018-01-28T21:11:07.601Z,4.63
2018-01-28T21:13:35.074Z,3.83
2018-01-28T21:16:02.496Z,2.20
2018-01-28T21:18:29.893Z,3.00
2018-01-28T21:20:57.265Z,3.20
2018-01-28T21:23:24.658Z,2.67
2018-01-28T21:25:52.030Z,2.43
2018-01-28T21:28:19.425Z,2.87
2018-01-28T21:30:46.793Z,3.97
2018-01-28T21:33:14.133Z,4.90
2018-01-28T21:35:41.501Z,5.27
2018-01-28T21:38:08.862Z,2.63
2018-01-28T21:40:36.234Z,2.60
2018-01-28T21:43:03.606Z,2.50
2018-01-28T21:45:31.102Z,2.93
2018-01-28T21:47:58.557Z,2.80
2018-01-28T21:50:25.956Z,2.40
2018-01-28T21:52:53.371Z,2.50
2018-01-28T21:55:20.770Z,2.43
2018-01-28T21:57:48.081Z,2.00
2018-01-28T22:00:15.523Z,3.23
2018-01-28T22:02:42.863Z,2.43
2018-01-28T22:05:10.189Z,3.37
2018-01-28T22:07:37.725Z,2.80
2018-01-28T22:10:05.115Z,2.83
2018-01-28T22:12:32.613Z,1.90
2018-01-28T22:14:59.925Z,2.43
2018-01-28T22:17:27.282Z,2.53
2018-01-28T22:19:54.606Z,2.03
2018-01-28T22:22:22.021Z,2.47
2018-01-28T22:24:49.466Z,2.70
2018-01-28T22:27:16.849Z,2.63
2018-01-28T22:29:44.246Z,2.27
2018-01-28T22:32:11.611Z,2.50
2018-01-28T22:34:38.954Z,2.10
2018-01-28T22:37:06.318Z,2.33
2018-01-28T22:39:33.663Z,1.63
2018-01-28T22:42:01.073Z,2.73
2018-01-28T22:44:28.468Z,2.20
2018-01-28T22:46:55.786Z,2.53
2018-01-28T22:49:23.229Z,3.03
2018-01-28T22:51:50.546Z,2.00
2018-01-28T22:54:17.874Z,2.07
2018-01-28T22:56:45.293Z,3.70
2018-01-28T22:59:12.669Z,2.30
2018-01-28T23:01:40.060Z,2.03
2018-01-28T23:04:07.381Z,2.40
2018-01-28T23:06:34.783Z,1.90
2018-01-28T23:09:02.101Z,1.83
2018-01-28T23:11:29.531Z,1.77
2018-01-28T23:13:56.915Z,3.17
2018-01-28T23:16:24.233Z,1.90
2018-01-28T23:18:51.587Z,2.30
2018-01-28T23:21:18.905Z,1.43
2018-01-28T23:23:46.290Z,1.93
2018-01-28T23:26:13.611Z,1.63
2018-01-28T23:28:40.955Z,1.90
2018-01-28T23:31:08.303Z,2.07
2018-01-28T23:33:35.650Z,1.90
2018-01-28T23:36:02.974Z,2.00
2018-01-28T23:38:30.299Z,2.10
2018-01-28T23:40:57.649Z,1.80
2018-01-28T23:43:24.969Z,1.70
2018-01-28T23:45:52.325Z,1.80
2018-01-28T23:48:19.752Z,1.90
2018-01-28T23:50:47.103Z,3.43
2018-01-28T23:53:14.454Z,1.60
2018-01-28T23:55:41.802Z,1.80
2018-01-28T23:58:09.172Z,2.27
